sensor_id;sensor_type;location;lat;lon;timestamp;P1;durP1;ratioP1;P2;durP2;ratioP2
39880;SDS011;25554;44.954;10.068;2023-06-24T00:01:29;11.50;;;9.23;;
39880;SDS011;25554;44.954;10.068;2023-06-24T00:03:57;15.98;;;10.25;;
39880;SDS011;25554;44.954;10.068;2023-06-24T00:06:23;15.57;;;10.63;;
39880;SDS011;25554;44.954;10.068;2023-06-24T00:08:51;17.65;;;11.35;;
39880;SDS011;25554;44.954;10.068;2023-06-24T00:11:29;14.20;;;10.90;;
39880;SDS011;25554;44.954;10.068;2023-06-24T00:13:55;21.52;;;11.82;;
39880;SDS011;25554;44.954;10.068;2023-06-24T00:16:22;19.25;;;12.55;;
39880;SDS011;25554;44.954;10.068;2023-06-24T00:18:52;18.23;;;11.70;;
39880;SDS011;25554;44.954;10.068;2023-06-24T00:21:27;15.95;;;12.77;;
39880;SDS011;25554;44.954;10.068;2023-06-24T00:23:56;16.63;;;12.95;;
39880;SDS011;25554;44.954;10.068;2023-06-24T00:26:30;22.20;;;13.40;;
39880;SDS011;25554;44.954;10.068;2023-06-24T00:28:58;21.95;;;14.02;;
39880;SDS011;25554;44.954;10.068;2023-06-24T00:31:24;19.55;;;13.77;;
39880;SDS011;25554;44.954;10.068;2023-06-24T00:33:51;19.23;;;15.00;;
39880;SDS011;25554;44.954;10.068;2023-06-24T00:36:18;20.60;;;15.70;;
39880;SDS011;25554;44.954;10.068;2023-06-24T00:38:45;25.10;;;15.88;;
39880;SDS011;25554;44.954;10.068;2023-06-24T00:41:11;22.52;;;15.73;;
39880;SDS011;25554;44.954;10.068;2023-06-24T00:43:38;23.20;;;16.73;;
39880;SDS011;25554;44.954;10.068;2023-06-24T00:46:05;21.92;;;16.63;;
39880;SDS011;25554;44.954;10.068;2023-06-24T00:48:32;22.20;;;15.30;;
39880;SDS011;25554;44.954;10.068;2023-06-24T00:50:58;26.83;;;16.33;;
39880;SDS011;25554;44.954;10.068;2023-06-24T00:53:26;22.13;;;15.82;;
39880;SDS011;25554;44.954;10.068;2023-06-24T00:55:53;19.67;;;15.10;;
39880;SDS011;25554;44.954;10.068;2023-06-24T00:58:21;22.70;;;15.20;;
39880;SDS011;25554;44.954;10.068;2023-06-24T01:00:48;21.00;;;15.63;;
39880;SDS011;25554;44.954;10.068;2023-06-24T01:03:24;19.40;;;13.23;;
39880;SDS011;25554;44.954;10.068;2023-06-24T01:05:51;24.42;;;15.57;;
39880;SDS011;25554;44.954;10.068;2023-06-24T01:08:18;22.13;;;14.25;;
39880;SDS011;25554;44.954;10.068;2023-06-24T01:10:48;18.45;;;13.77;;
39880;SDS011;25554;44.954;10.068;2023-06-24T01:13:17;21.23;;;13.57;;
39880;SDS011;25554;44.954;10.068;2023-06-24T01:15:44;21.20;;;14.38;;
39880;SDS011;25554;44.954;10.068;2023-06-24T01:20:47;19.55;;;13.95;;
39880;SDS011;25554;44.954;10.068;2023-06-24T01:31:31;22.98;;;13.70;;
39880;SDS011;25554;44.954;10.068;2023-06-24T01:37:37;24.58;;;15.50;;
39880;SDS011;25554;44.954;10.068;2023-06-24T01:40:24;17.83;;;13.77;;
39880;SDS011;25554;44.954;10.068;2023-06-24T01:42:51;21.65;;;14.73;;
39880;SDS011;25554;44.954;10.068;2023-06-24T01:45:21;22.40;;;14.32;;
39880;SDS011;25554;44.954;10.068;2023-06-24T01:47:53;23.67;;;16.50;;
39880;SDS011;25554;44.954;10.068;2023-06-24T01:50:33;22.38;;;15.23;;
39880;SDS011;25554;44.954;10.068;2023-06-24T01:53:01;20.25;;;15.25;;
39880;SDS011;25554;44.954;10.068;2023-06-24T01:55:32;19.40;;;15.10;;
39880;SDS011;25554;44.954;10.068;2023-06-24T01:58:01;21.67;;;14.40;;
39880;SDS011;25554;44.954;10.068;2023-06-24T02:00:32;19.45;;;13.32;;
39880;SDS011;25554;44.954;10.068;2023-06-24T02:02:59;19.13;;;12.77;;
39880;SDS011;25554;44.954;10.068;2023-06-24T02:05:27;17.10;;;12.43;;
39880;SDS011;25554;44.954;10.068;2023-06-24T02:07:54;17.10;;;12.35;;
39880;SDS011;25554;44.954;10.068;2023-06-24T02:10:22;16.85;;;12.55;;
39880;SDS011;25554;44.954;10.068;2023-06-24T02:12:50;18.00;;;12.38;;
39880;SDS011;25554;44.954;10.068;2023-06-24T02:15:19;15.57;;;11.95;;
39880;SDS011;25554;44.954;10.068;2023-06-24T02:17:51;15.43;;;11.32;;
39880;SDS011;25554;44.954;10.068;2023-06-24T02:20:22;16.42;;;11.70;;
39880;SDS011;25554;44.954;10.068;2023-06-24T02:22:53;14.35;;;10.55;;
39880;SDS011;25554;44.954;10.068;2023-06-24T02:25:21;18.75;;;11.52;;
39880;SDS011;25554;44.954;10.068;2023-06-24T02:27:49;17.40;;;11.50;;
39880;SDS011;25554;44.954;10.068;2023-06-24T02:30:17;16.42;;;10.55;;
39880;SDS011;25554;44.954;10.068;2023-06-24T02:32:43;16.92;;;10.57;;
39880;SDS011;25554;44.954;10.068;2023-06-24T02:35:10;14.63;;;11.00;;
39880;SDS011;25554;44.954;10.068;2023-06-24T02:37:36;15.10;;;9.23;;
39880;SDS011;25554;44.954;10.068;2023-06-24T02:40:03;14.85;;;10.50;;
39880;SDS011;25554;44.954;10.068;2023-06-24T02:42:31;15.07;;;9.70;;
39880;SDS011;25554;44.954;10.068;2023-06-24T02:44:59;16.02;;;9.57;;
39880;SDS011;25554;44.954;10.068;2023-06-24T02:47:26;16.05;;;8.88;;
39880;SDS011;25554;44.954;10.068;2023-06-24T02:49:53;13.25;;;9.15;;
39880;SDS011;25554;44.954;10.068;2023-06-24T02:52:23;18.60;;;10.02;;
39880;SDS011;25554;44.954;10.068;2023-06-24T02:54:55;12.82;;;9.32;;
39880;SDS011;25554;44.954;10.068;2023-06-24T02:57:26;14.50;;;9.27;;
39880;SDS011;25554;44.954;10.068;2023-06-24T03:00:13;13.82;;;9.82;;
39880;SDS011;25554;44.954;10.068;2023-06-24T03:02:58;14.95;;;9.18;;
39880;SDS011;25554;44.954;10.068;2023-06-24T03:05:25;14.82;;;9.32;;
39880;SDS011;25554;44.954;10.068;2023-06-24T03:07:54;13.80;;;9.75;;
39880;SDS011;25554;44.954;10.068;2023-06-24T03:10:23;13.10;;;9.80;;
39880;SDS011;25554;44.954;10.068;2023-06-24T03:12:50;16.10;;;9.40;;
39880;SDS011;25554;44.954;10.068;2023-06-24T03:15:20;15.30;;;9.30;;
39880;SDS011;25554;44.954;10.068;2023-06-24T03:17:47;14.82;;;9.20;;
39880;SDS011;25554;44.954;10.068;2023-06-24T03:20:14;16.15;;;9.55;;
39880;SDS011;25554;44.954;10.068;2023-06-24T03:22:41;17.65;;;9.90;;
39880;SDS011;25554;44.954;10.068;2023-06-24T03:25:11;13.95;;;9.93;;
39880;SDS011;25554;44.954;10.068;2023-06-24T03:27:38;14.32;;;9.35;;
39880;SDS011;25554;44.954;10.068;2023-06-24T03:30:04;14.00;;;10.25;;
39880;SDS011;25554;44.954;10.068;2023-06-24T03:32:34;14.60;;;10.15;;
39880;SDS011;25554;44.954;10.068;2023-06-24T03:35:02;13.63;;;9.35;;
39880;SDS011;25554;44.954;10.068;2023-06-24T03:37:29;15.73;;;10.48;;
39880;SDS011;25554;44.954;10.068;2023-06-24T03:39:56;15.95;;;11.15;;
39880;SDS011;25554;44.954;10.068;2023-06-24T03:42:22;16.30;;;11.13;;
39880;SDS011;25554;44.954;10.068;2023-06-24T03:44:49;16.95;;;11.88;;
39880;SDS011;25554;44.954;10.068;2023-06-24T03:47:16;19.10;;;12.00;;
39880;SDS011;25554;44.954;10.068;2023-06-24T03:49:42;16.02;;;11.77;;
39880;SDS011;25554;44.954;10.068;2023-06-24T03:52:10;18.90;;;12.50;;
39880;SDS011;25554;44.954;10.068;2023-06-24T03:54:37;17.98;;;12.32;;
39880;SDS011;25554;44.954;10.068;2023-06-24T03:57:06;24.05;;;13.10;;
39880;SDS011;25554;44.954;10.068;2023-06-24T03:59:35;18.95;;;13.07;;
39880;SDS011;25554;44.954;10.068;2023-06-24T04:02:02;18.05;;;12.95;;
39880;SDS011;25554;44.954;10.068;2023-06-24T04:04:28;18.10;;;11.45;;
39880;SDS011;25554;44.954;10.068;2023-06-24T04:06:55;15.68;;;11.27;;
39880;SDS011;25554;44.954;10.068;2023-06-24T04:09:21;15.13;;;11.48;;
39880;SDS011;25554;44.954;10.068;2023-06-24T04:11:52;18.80;;;11.07;;
39880;SDS011;25554;44.954;10.068;2023-06-24T04:14:19;19.23;;;11.48;;
39880;SDS011;25554;44.954;10.068;2023-06-24T04:16:46;18.33;;;10.60;;
39880;SDS011;25554;44.954;10.068;2023-06-24T04:21:39;13.45;;;9.50;;
39880;SDS011;25554;44.954;10.068;2023-06-24T04:24:05;18.63;;;9.82;;
39880;SDS011;25554;44.954;10.068;2023-06-24T04:26:32;17.67;;;9.20;;
39880;SDS011;25554;44.954;10.068;2023-06-24T04:28:59;11.95;;;8.70;;
39880;SDS011;25554;44.954;10.068;2023-06-24T04:31:25;32.50;;;9.40;;
39880;SDS011;25554;44.954;10.068;2023-06-24T04:33:53;21.88;;;10.82;;
39880;SDS011;25554;44.954;10.068;2023-06-24T04:36:20;13.18;;;8.00;;
39880;SDS011;25554;44.954;10.068;2023-06-24T04:38:47;15.15;;;8.63;;
39880;SDS011;25554;44.954;10.068;2023-06-24T04:41:14;15.57;;;8.27;;
39880;SDS011;25554;44.954;10.068;2023-06-24T04:43:40;12.25;;;7.78;;
39880;SDS011;25554;44.954;10.068;2023-06-24T04:46:08;13.90;;;8.70;;
39880;SDS011;25554;44.954;10.068;2023-06-24T04:48:35;14.57;;;8.65;;
39880;SDS011;25554;44.954;10.068;2023-06-24T04:51:01;18.40;;;8.23;;
39880;SDS011;25554;44.954;10.068;2023-06-24T04:53:28;14.07;;;8.00;;
39880;SDS011;25554;44.954;10.068;2023-06-24T04:55:55;10.90;;;7.90;;
39880;SDS011;25554;44.954;10.068;2023-06-24T04:58:21;13.15;;;8.68;;
39880;SDS011;25554;44.954;10.068;2023-06-24T05:03:14;19.35;;;8.98;;
39880;SDS011;25554;44.954;10.068;2023-06-24T05:08:06;15.93;;;9.32;;
39880;SDS011;25554;44.954;10.068;2023-06-24T05:10:33;14.02;;;8.45;;
39880;SDS011;25554;44.954;10.068;2023-06-24T05:15:26;16.23;;;9.88;;
39880;SDS011;25554;44.954;10.068;2023-06-24T05:17:53;14.60;;;9.68;;
39880;SDS011;25554;44.954;10.068;2023-06-24T05:20:19;18.33;;;9.55;;
39880;SDS011;25554;44.954;10.068;2023-06-24T05:22:46;17.10;;;9.52;;
39880;SDS011;25554;44.954;10.068;2023-06-24T05:25:12;23.45;;;10.32;;
39880;SDS011;25554;44.954;10.068;2023-06-24T05:27:39;20.63;;;10.10;;
39880;SDS011;25554;44.954;10.068;2023-06-24T05:30:06;20.25;;;9.70;;
39880;SDS011;25554;44.954;10.068;2023-06-24T05:32:33;15.82;;;10.07;;
39880;SDS011;25554;44.954;10.068;2023-06-24T05:37:25;16.88;;;10.10;;
39880;SDS011;25554;44.954;10.068;2023-06-24T05:39:52;17.50;;;10.45;;
39880;SDS011;25554;44.954;10.068;2023-06-24T05:42:19;15.43;;;9.65;;
39880;SDS011;25554;44.954;10.068;2023-06-24T05:44:46;18.58;;;10.60;;
39880;SDS011;25554;44.954;10.068;2023-06-24T05:47:12;13.25;;;9.50;;
39880;SDS011;25554;44.954;10.068;2023-06-24T05:49:39;13.82;;;9.85;;
39880;SDS011;25554;44.954;10.068;2023-06-24T05:52:06;14.88;;;10.52;;
39880;SDS011;25554;44.954;10.068;2023-06-24T05:54:32;16.90;;;9.90;;
39880;SDS011;25554;44.954;10.068;2023-06-24T05:56:59;12.82;;;8.93;;
39880;SDS011;25554;44.954;10.068;2023-06-24T05:59:25;19.80;;;10.43;;
39880;SDS011;25554;44.954;10.068;2023-06-24T06:01:52;16.08;;;10.80;;
39880;SDS011;25554;44.954;10.068;2023-06-24T06:04:18;16.65;;;10.48;;
39880;SDS011;25554;44.954;10.068;2023-06-24T06:06:45;15.10;;;11.10;;
39880;SDS011;25554;44.954;10.068;2023-06-24T06:09:12;19.85;;;11.77;;
39880;SDS011;25554;44.954;10.068;2023-06-24T06:11:38;17.85;;;11.65;;
39880;SDS011;25554;44.954;10.068;2023-06-24T06:14:05;15.60;;;10.85;;
39880;SDS011;25554;44.954;10.068;2023-06-24T06:16:32;21.38;;;11.70;;
39880;SDS011;25554;44.954;10.068;2023-06-24T06:18:58;26.30;;;12.35;;
39880;SDS011;25554;44.954;10.068;2023-06-24T06:21:25;17.23;;;10.70;;
39880;SDS011;25554;44.954;10.068;2023-06-24T06:23:51;19.70;;;9.52;;
39880;SDS011;25554;44.954;10.068;2023-06-24T06:26:18;19.58;;;10.93;;
39880;SDS011;25554;44.954;10.068;2023-06-24T06:28:44;15.90;;;9.35;;
39880;SDS011;25554;44.954;10.068;2023-06-24T06:31:13;18.25;;;9.38;;
39880;SDS011;25554;44.954;10.068;2023-06-24T06:33:39;15.13;;;8.55;;
39880;SDS011;25554;44.954;10.068;2023-06-24T06:36:06;15.20;;;8.88;;
39880;SDS011;25554;44.954;10.068;2023-06-24T06:38:33;15.70;;;8.68;;
39880;SDS011;25554;44.954;10.068;2023-06-24T06:40:59;10.93;;;7.57;;
39880;SDS011;25554;44.954;10.068;2023-06-24T06:43:26;12.30;;;7.47;;
39880;SDS011;25554;44.954;10.068;2023-06-24T06:45:53;12.98;;;8.18;;
39880;SDS011;25554;44.954;10.068;2023-06-24T06:48:19;13.15;;;8.75;;
39880;SDS011;25554;44.954;10.068;2023-06-24T06:50:46;12.82;;;8.82;;
39880;SDS011;25554;44.954;10.068;2023-06-24T06:53:13;12.68;;;8.23;;
39880;SDS011;25554;44.954;10.068;2023-06-24T06:55:39;11.07;;;8.18;;
39880;SDS011;25554;44.954;10.068;2023-06-24T06:58:08;14.43;;;8.50;;
39880;SDS011;25554;44.954;10.068;2023-06-24T07:00:34;14.38;;;9.05;;
39880;SDS011;25554;44.954;10.068;2023-06-24T07:03:01;16.15;;;9.15;;
39880;SDS011;25554;44.954;10.068;2023-06-24T07:05:28;22.60;;;9.00;;
39880;SDS011;25554;44.954;10.068;2023-06-24T07:07:54;20.15;;;8.70;;
39880;SDS011;25554;44.954;10.068;2023-06-24T07:10:21;13.73;;;8.45;;
39880;SDS011;25554;44.954;10.068;2023-06-24T07:12:47;16.55;;;8.70;;
39880;SDS011;25554;44.954;10.068;2023-06-24T07:15:15;13.05;;;7.80;;
39880;SDS011;25554;44.954;10.068;2023-06-24T07:17:44;19.55;;;8.45;;
39880;SDS011;25554;44.954;10.068;2023-06-24T07:20:11;16.33;;;8.55;;
39880;SDS011;25554;44.954;10.068;2023-06-24T07:22:38;10.38;;;6.88;;
39880;SDS011;25554;44.954;10.068;2023-06-24T07:25:04;12.48;;;7.40;;
39880;SDS011;25554;44.954;10.068;2023-06-24T07:27:31;17.10;;;6.85;;
39880;SDS011;25554;44.954;10.068;2023-06-24T07:29:57;14.05;;;6.97;;
39880;SDS011;25554;44.954;10.068;2023-06-24T07:32:24;10.95;;;6.57;;
39880;SDS011;25554;44.954;10.068;2023-06-24T07:34:51;10.85;;;6.35;;
39880;SDS011;25554;44.954;10.068;2023-06-24T07:37:17;9.55;;;5.30;;
39880;SDS011;25554;44.954;10.068;2023-06-24T07:39:44;13.70;;;6.50;;
39880;SDS011;25554;44.954;10.068;2023-06-24T07:42:10;8.02;;;6.80;;
39880;SDS011;25554;44.954;10.068;2023-06-24T07:44:37;7.38;;;5.50;;
39880;SDS011;25554;44.954;10.068;2023-06-24T07:47:05;11.30;;;6.57;;
39880;SDS011;25554;44.954;10.068;2023-06-24T07:49:31;11.68;;;5.85;;
39880;SDS011;25554;44.954;10.068;2023-06-24T07:51:58;11.10;;;6.60;;
39880;SDS011;25554;44.954;10.068;2023-06-24T07:54:25;10.15;;;5.57;;
39880;SDS011;25554;44.954;10.068;2023-06-24T07:56:51;9.60;;;5.32;;
39880;SDS011;25554;44.954;10.068;2023-06-24T07:59:18;11.25;;;5.97;;
39880;SDS011;25554;44.954;10.068;2023-06-24T08:01:44;14.13;;;5.40;;
39880;SDS011;25554;44.954;10.068;2023-06-24T08:04:11;8.98;;;6.72;;
39880;SDS011;25554;44.954;10.068;2023-06-24T08:06:37;10.27;;;6.22;;
39880;SDS011;25554;44.954;10.068;2023-06-24T08:09:04;8.95;;;5.70;;
39880;SDS011;25554;44.954;10.068;2023-06-24T08:11:30;12.60;;;5.88;;
39880;SDS011;25554;44.954;10.068;2023-06-24T08:13:57;9.05;;;5.45;;
39880;SDS011;25554;44.954;10.068;2023-06-24T08:16:24;9.90;;;6.18;;
39880;SDS011;25554;44.954;10.068;2023-06-24T08:18:50;10.68;;;5.53;;
39880;SDS011;25554;44.954;10.068;2023-06-24T08:21:17;9.55;;;5.57;;
39880;SDS011;25554;44.954;10.068;2023-06-24T08:23:43;10.02;;;5.78;;
39880;SDS011;25554;44.954;10.068;2023-06-24T08:26:10;5.95;;;4.95;;
39880;SDS011;25554;44.954;10.068;2023-06-24T08:28:36;11.13;;;5.75;;
39880;SDS011;25554;44.954;10.068;2023-06-24T08:31:03;10.95;;;6.18;;
39880;SDS011;25554;44.954;10.068;2023-06-24T08:33:30;9.70;;;6.53;;
39880;SDS011;25554;44.954;10.068;2023-06-24T08:35:56;7.30;;;5.63;;
39880;SDS011;25554;44.954;10.068;2023-06-24T08:38:23;7.85;;;5.20;;
39880;SDS011;25554;44.954;10.068;2023-06-24T08:40:49;8.70;;;5.03;;
39880;SDS011;25554;44.954;10.068;2023-06-24T08:43:16;12.20;;;5.90;;
39880;SDS011;25554;44.954;10.068;2023-06-24T08:45:43;9.32;;;5.80;;
39880;SDS011;25554;44.954;10.068;2023-06-24T08:48:10;10.73;;;5.00;;
39880;SDS011;25554;44.954;10.068;2023-06-24T08:50:39;11.25;;;5.32;;
39880;SDS011;25554;44.954;10.068;2023-06-24T08:53:09;11.82;;;5.50;;
39880;SDS011;25554;44.954;10.068;2023-06-24T08:55:36;8.20;;;4.90;;
39880;SDS011;25554;44.954;10.068;2023-06-24T08:58:08;11.50;;;5.00;;
39880;SDS011;25554;44.954;10.068;2023-06-24T09:00:35;10.07;;;5.20;;
39880;SDS011;25554;44.954;10.068;2023-06-24T09:03:01;11.60;;;4.88;;
39880;SDS011;25554;44.954;10.068;2023-06-24T09:05:28;6.80;;;4.85;;
39880;SDS011;25554;44.954;10.068;2023-06-24T09:07:55;9.13;;;6.03;;
39880;SDS011;25554;44.954;10.068;2023-06-24T09:10:31;6.93;;;4.93;;
39880;SDS011;25554;44.954;10.068;2023-06-24T09:12:59;7.63;;;4.63;;
39880;SDS011;25554;44.954;10.068;2023-06-24T09:15:30;8.40;;;4.80;;
39880;SDS011;25554;44.954;10.068;2023-06-24T09:17:57;10.25;;;4.38;;
39880;SDS011;25554;44.954;10.068;2023-06-24T09:20:26;7.13;;;4.40;;
39880;SDS011;25554;44.954;10.068;2023-06-24T09:23:00;10.02;;;4.72;;
39880;SDS011;25554;44.954;10.068;2023-06-24T09:25:28;8.25;;;4.30;;
39880;SDS011;25554;44.954;10.068;2023-06-24T09:27:58;5.03;;;3.88;;
39880;SDS011;25554;44.954;10.068;2023-06-24T09:30:26;8.60;;;4.22;;
39880;SDS011;25554;44.954;10.068;2023-06-24T09:32:53;8.18;;;4.40;;
39880;SDS011;25554;44.954;10.068;2023-06-24T09:35:23;5.40;;;4.00;;
39880;SDS011;25554;44.954;10.068;2023-06-24T09:37:51;6.22;;;4.10;;
39880;SDS011;25554;44.954;10.068;2023-06-24T09:40:18;4.43;;;3.70;;
39880;SDS011;25554;44.954;10.068;2023-06-24T09:42:51;6.18;;;4.10;;
39880;SDS011;25554;44.954;10.068;2023-06-24T09:45:23;10.80;;;4.28;;
39880;SDS011;25554;44.954;10.068;2023-06-24T09:47:53;8.57;;;4.38;;
39880;SDS011;25554;44.954;10.068;2023-06-24T09:50:20;8.35;;;4.03;;
39880;SDS011;25554;44.954;10.068;2023-06-24T09:52:50;5.68;;;3.75;;
39880;SDS011;25554;44.954;10.068;2023-06-24T09:55:20;8.40;;;3.88;;
39880;SDS011;25554;44.954;10.068;2023-06-24T09:57:47;6.75;;;3.83;;
39880;SDS011;25554;44.954;10.068;2023-06-24T10:00:18;4.78;;;3.67;;
39880;SDS011;25554;44.954;10.068;2023-06-24T10:02:45;7.70;;;3.97;;
39880;SDS011;25554;44.954;10.068;2023-06-24T10:05:13;5.80;;;4.05;;
39880;SDS011;25554;44.954;10.068;2023-06-24T10:07:40;5.97;;;4.03;;
39880;SDS011;25554;44.954;10.068;2023-06-24T10:10:07;4.18;;;3.30;;
39880;SDS011;25554;44.954;10.068;2023-06-24T10:12:35;6.70;;;4.18;;
39880;SDS011;25554;44.954;10.068;2023-06-24T10:15:02;6.82;;;3.60;;
39880;SDS011;25554;44.954;10.068;2023-06-24T10:17:29;11.43;;;5.40;;
39880;SDS011;25554;44.954;10.068;2023-06-24T10:19:56;6.20;;;4.32;;
39880;SDS011;25554;44.954;10.068;2023-06-24T10:22:22;6.15;;;4.47;;
39880;SDS011;25554;44.954;10.068;2023-06-24T10:24:54;5.88;;;4.57;;
39880;SDS011;25554;44.954;10.068;2023-06-24T10:27:22;5.93;;;4.53;;
39880;SDS011;25554;44.954;10.068;2023-06-24T10:29:50;8.77;;;4.35;;
39880;SDS011;25554;44.954;10.068;2023-06-24T10:32:18;5.50;;;4.00;;
39880;SDS011;25554;44.954;10.068;2023-06-24T10:34:46;7.05;;;4.28;;
39880;SDS011;25554;44.954;10.068;2023-06-24T10:39:47;5.68;;;4.18;;
39880;SDS011;25554;44.954;10.068;2023-06-24T10:44:53;8.45;;;3.60;;
39880;SDS011;25554;44.954;10.068;2023-06-24T10:47:24;12.57;;;4.53;;
39880;SDS011;25554;44.954;10.068;2023-06-24T10:49:51;4.88;;;4.32;;
39880;SDS011;25554;44.954;10.068;2023-06-24T10:52:21;6.55;;;4.38;;
39880;SDS011;25554;44.954;10.068;2023-06-24T10:54:49;5.00;;;3.80;;
39880;SDS011;25554;44.954;10.068;2023-06-24T10:57:23;4.05;;;3.30;;
39880;SDS011;25554;44.954;10.068;2023-06-24T10:59:51;5.47;;;3.60;;
39880;SDS011;25554;44.954;10.068;2023-06-24T11:02:19;4.38;;;3.35;;
39880;SDS011;25554;44.954;10.068;2023-06-24T11:07:14;4.65;;;3.08;;
39880;SDS011;25554;44.954;10.068;2023-06-24T11:09:48;3.95;;;3.53;;
39880;SDS011;25554;44.954;10.068;2023-06-24T11:12:16;4.40;;;3.25;;
39880;SDS011;25554;44.954;10.068;2023-06-24T11:14:42;5.68;;;3.67;;
39880;SDS011;25554;44.954;10.068;2023-06-24T11:17:09;5.72;;;3.65;;
39880;SDS011;25554;44.954;10.068;2023-06-24T11:19:36;4.45;;;3.83;;
39880;SDS011;25554;44.954;10.068;2023-06-24T11:22:05;3.45;;;3.15;;
39880;SDS011;25554;44.954;10.068;2023-06-24T11:24:32;9.07;;;4.05;;
39880;SDS011;25554;44.954;10.068;2023-06-24T11:27:00;4.88;;;3.47;;
39880;SDS011;25554;44.954;10.068;2023-06-24T11:29:29;6.43;;;3.40;;
39880;SDS011;25554;44.954;10.068;2023-06-24T11:31:57;6.20;;;3.60;;
39880;SDS011;25554;44.954;10.068;2023-06-24T11:34:23;6.85;;;3.60;;
39880;SDS011;25554;44.954;10.068;2023-06-24T11:36:50;5.43;;;3.83;;
39880;SDS011;25554;44.954;10.068;2023-06-24T11:39:23;6.20;;;3.47;;
39880;SDS011;25554;44.954;10.068;2023-06-24T11:42:00;5.55;;;3.53;;
39880;SDS011;25554;44.954;10.068;2023-06-24T11:44:26;4.55;;;3.17;;
39880;SDS011;25554;44.954;10.068;2023-06-24T11:46:53;5.90;;;3.53;;
39880;SDS011;25554;44.954;10.068;2023-06-24T11:49:30;3.80;;;3.30;;
39880;SDS011;25554;44.954;10.068;2023-06-24T11:51:56;5.38;;;3.85;;
39880;SDS011;25554;44.954;10.068;2023-06-24T11:54:23;4.25;;;3.17;;
39880;SDS011;25554;44.954;10.068;2023-06-24T11:56:52;5.18;;;3.78;;
39880;SDS011;25554;44.954;10.068;2023-06-24T11:59:20;5.35;;;3.35;;
39880;SDS011;25554;44.954;10.068;2023-06-24T12:01:55;4.55;;;2.95;;
39880;SDS011;25554;44.954;10.068;2023-06-24T12:07:02;4.45;;;4.05;;
39880;SDS011;25554;44.954;10.068;2023-06-24T12:09:29;4.78;;;3.25;;
39880;SDS011;25554;44.954;10.068;2023-06-24T12:11:55;4.63;;;3.20;;
39880;SDS011;25554;44.954;10.068;2023-06-24T12:14:22;5.40;;;3.33;;
39880;SDS011;25554;44.954;10.068;2023-06-24T12:16:49;4.72;;;2.75;;
39880;SDS011;25554;44.954;10.068;2023-06-24T12:19:15;8.10;;;2.92;;
39880;SDS011;25554;44.954;10.068;2023-06-24T12:21:42;3.47;;;2.90;;
39880;SDS011;25554;44.954;10.068;2023-06-24T12:24:08;5.63;;;3.03;;
39880;SDS011;25554;44.954;10.068;2023-06-24T12:26:35;4.75;;;2.72;;
39880;SDS011;25554;44.954;10.068;2023-06-24T12:29:02;3.55;;;3.08;;
39880;SDS011;25554;44.954;10.068;2023-06-24T12:31:29;3.22;;;2.85;;
39880;SDS011;25554;44.954;10.068;2023-06-24T12:33:55;3.80;;;2.80;;
39880;SDS011;25554;44.954;10.068;2023-06-24T12:36:22;3.15;;;2.60;;
39880;SDS011;25554;44.954;10.068;2023-06-24T12:38:48;3.97;;;2.58;;
39880;SDS011;25554;44.954;10.068;2023-06-24T12:41:15;5.53;;;3.30;;
39880;SDS011;25554;44.954;10.068;2023-06-24T12:43:41;2.90;;;2.55;;
39880;SDS011;25554;44.954;10.068;2023-06-24T12:46:08;3.53;;;2.55;;
39880;SDS011;25554;44.954;10.068;2023-06-24T12:48:35;3.85;;;3.17;;
39880;SDS011;25554;44.954;10.068;2023-06-24T12:51:01;4.30;;;2.80;;
39880;SDS011;25554;44.954;10.068;2023-06-24T12:53:28;3.80;;;3.17;;
39880;SDS011;25554;44.954;10.068;2023-06-24T12:55:54;5.18;;;2.83;;
39880;SDS011;25554;44.954;10.068;2023-06-24T12:58:23;13.80;;;3.30;;
39880;SDS011;25554;44.954;10.068;2023-06-24T13:00:50;3.38;;;2.85;;
39880;SDS011;25554;44.954;10.068;2023-06-24T13:03:17;3.60;;;3.20;;
39880;SDS011;25554;44.954;10.068;2023-06-24T13:05:44;4.72;;;2.83;;
39880;SDS011;25554;44.954;10.068;2023-06-24T13:08:10;5.28;;;2.95;;
39880;SDS011;25554;44.954;10.068;2023-06-24T13:10:37;4.20;;;3.08;;
39880;SDS011;25554;44.954;10.068;2023-06-24T13:13:04;3.55;;;3.20;;
39880;SDS011;25554;44.954;10.068;2023-06-24T13:15:31;3.15;;;2.80;;
39880;SDS011;25554;44.954;10.068;2023-06-24T13:17:57;4.47;;;3.20;;
39880;SDS011;25554;44.954;10.068;2023-06-24T13:20:24;5.03;;;3.38;;
39880;SDS011;25554;44.954;10.068;2023-06-24T13:22:50;4.28;;;3.13;;
39880;SDS011;25554;44.954;10.068;2023-06-24T13:25:17;2.97;;;2.67;;
39880;SDS011;25554;44.954;10.068;2023-06-24T13:27:44;5.63;;;2.80;;
39880;SDS011;25554;44.954;10.068;2023-06-24T13:30:11;12.75;;;3.88;;
39880;SDS011;25554;44.954;10.068;2023-06-24T13:32:40;4.30;;;3.10;;
39880;SDS011;25554;44.954;10.068;2023-06-24T13:35:07;3.50;;;3.03;;
39880;SDS011;25554;44.954;10.068;2023-06-24T13:37:34;7.30;;;3.20;;
39880;SDS011;25554;44.954;10.068;2023-06-24T13:40:00;4.55;;;3.15;;
39880;SDS011;25554;44.954;10.068;2023-06-24T13:42:27;6.70;;;2.80;;
39880;SDS011;25554;44.954;10.068;2023-06-24T13:44:54;3.88;;;3.03;;
39880;SDS011;25554;44.954;10.068;2023-06-24T13:47:20;4.82;;;3.60;;
39880;SDS011;25554;44.954;10.068;2023-06-24T13:49:51;4.28;;;3.28;;
39880;SDS011;25554;44.954;10.068;2023-06-24T13:52:18;3.67;;;2.80;;
39880;SDS011;25554;44.954;10.068;2023-06-24T13:54:44;3.58;;;3.25;;
39880;SDS011;25554;44.954;10.068;2023-06-24T13:57:12;3.70;;;3.10;;
39880;SDS011;25554;44.954;10.068;2023-06-24T13:59:43;4.28;;;3.33;;
39880;SDS011;25554;44.954;10.068;2023-06-24T14:02:10;3.30;;;2.97;;
39880;SDS011;25554;44.954;10.068;2023-06-24T14:04:37;4.35;;;2.70;;
39880;SDS011;25554;44.954;10.068;2023-06-24T14:07:05;3.88;;;3.03;;
39880;SDS011;25554;44.954;10.068;2023-06-24T14:09:33;4.03;;;2.90;;
39880;SDS011;25554;44.954;10.068;2023-06-24T14:12:00;3.85;;;3.28;;
39880;SDS011;25554;44.954;10.068;2023-06-24T14:14:26;3.33;;;3.03;;
39880;SDS011;25554;44.954;10.068;2023-06-24T14:16:53;5.65;;;3.00;;
39880;SDS011;25554;44.954;10.068;2023-06-24T14:19:25;3.33;;;2.88;;
39880;SDS011;25554;44.954;10.068;2023-06-24T14:22:17;3.30;;;3.00;;
39880;SDS011;25554;44.954;10.068;2023-06-24T14:24:50;10.95;;;3.85;;
39880;SDS011;25554;44.954;10.068;2023-06-24T14:27:16;3.97;;;2.88;;
39880;SDS011;25554;44.954;10.068;2023-06-24T14:29:43;5.43;;;2.83;;
39880;SDS011;25554;44.954;10.068;2023-06-24T14:32:09;3.30;;;2.95;;
39880;SDS011;25554;44.954;10.068;2023-06-24T14:34:36;4.50;;;3.05;;
39880;SDS011;25554;44.954;10.068;2023-06-24T14:37:02;3.33;;;3.00;;
39880;SDS011;25554;44.954;10.068;2023-06-24T14:39:29;5.10;;;2.60;;
39880;SDS011;25554;44.954;10.068;2023-06-24T14:41:56;3.95;;;3.03;;
39880;SDS011;25554;44.954;10.068;2023-06-24T14:44:22;3.35;;;3.05;;
39880;SDS011;25554;44.954;10.068;2023-06-24T14:46:49;5.00;;;3.00;;
39880;SDS011;25554;44.954;10.068;2023-06-24T14:49:16;4.28;;;3.10;;
39880;SDS011;25554;44.954;10.068;2023-06-24T14:51:42;3.05;;;2.75;;
39880;SDS011;25554;44.954;10.068;2023-06-24T14:54:09;4.10;;;3.03;;
39880;SDS011;25554;44.954;10.068;2023-06-24T14:56:35;4.20;;;2.97;;
39880;SDS011;25554;44.954;10.068;2023-06-24T14:59:02;3.08;;;2.78;;
39880;SDS011;25554;44.954;10.068;2023-06-24T15:01:29;2.67;;;2.42;;
39880;SDS011;25554;44.954;10.068;2023-06-24T15:03:55;3.33;;;2.80;;